Time;durP1;ratioP1;P1;durP2;ratioP2;P2;SDS_P1;SDS_P2;PMS_P1;PMS_P2;Temp;Humidity;BMP_temperature;BMP_pressure;BME280_temperature;BME280_humidity;BME280_pressure;Samples;Min_cycle;Max_cycle;Signal;HPM_P1;HPM_P2
2022/08/27 00:01:08;;;;;;;5.50;4.32;;;;;;;18.54;100.00;96480.19;5044833;28;20589;-49
2022/08/27 00:03:35;;;;;;;4.78;4.47;;;;;;;18.55;100.00;96473.81;5045005;28;20215;-51
2022/08/27 00:06:01;;;;;;;4.57;4.28;;;;;;;18.56;100.00;96470.94;5045413;28;20612;-49
2022/08/27 00:08:28;;;;;;;5.65;4.60;;;;;;;18.56;100.00;96473.63;5045534;28;20270;-49
2022/08/27 00:10:55;;;;;;;5.75;4.95;;;;;;;18.59;100.00;96467.88;5045346;28;20595;-49
2022/08/27 00:13:22;;;;;;;5.70;4.97;;;;;;;18.61;100.00;96471.16;5045197;28;20229;-49
2022/08/27 00:15:48;;;;;;;5.20;4.90;;;;;;;18.54;100.00;96472.13;5044924;28;20243;-49
2022/08/27 00:18:17;;;;;;;9.77;8.88;;;;;;;18.53;100.00;96465.94;5045907;28;20195;-49
2022/08/27 00:20:45;;;;;;;15.38;14.07;;;;;;;18.57;100.00;96463.72;5044719;28;20306;-50
2022/08/27 00:23:11;;;;;;;8.52;7.82;;;;;;;18.56;100.00;96462.91;5045350;28;20284;-50
2022/08/27 00:25:39;;;;;;;5.78;5.20;;;;;;;18.57;100.00;96459.19;5044519;28;20678;-48
2022/08/27 00:28:05;;;;;;;5.68;5.28;;;;;;;18.66;100.00;96458.03;5045421;28;20239;-49
2022/08/27 00:30:32;;;;;;;5.25;4.85;;;;;;;18.68;100.00;96461.31;5044304;28;20314;-48
2022/08/27 00:32:59;;;;;;;6.15;5.65;;;;;;;18.59;100.00;96451.78;5044389;28;20632;-49
2022/08/27 00:35:27;;;;;;;5.45;4.90;;;;;;;18.58;100.00;96450.13;5044503;28;20208;-50
2022/08/27 00:37:54;;;;;;;5.97;5.40;;;;;;;18.55;100.00;96455.88;5045048;28;20590;-49
2022/08/27 00:40:22;;;;;;;5.88;5.43;;;;;;;18.66;100.00;96446.47;5044378;28;20302;-49
2022/08/27 00:42:49;;;;;;;5.20;4.80;;;;;;;18.70;100.00;96445.88;5044126;28;20509;-49
2022/08/27 00:45:18;;;;;;;5.40;5.00;;;;;;;18.62;100.00;96440.69;5044568;28;20230;-49
2022/08/27 00:47:47;;;;;;;5.47;4.97;;;;;;;18.60;100.00;96437.34;5044232;28;20267;-49
2022/08/27 00:50:17;;;;;;;5.70;5.30;;;;;;;18.66;100.00;96433.91;5044941;28;20207;-48
2022/08/27 00:52:47;;;;;;;6.22;5.65;;;;;;;18.66;100.00;96435.75;5043999;28;20546;-49
2022/08/27 00:55:17;;;;;;;5.43;5.13;;;;;;;18.65;100.00;96434.94;5044815;28;20545;-49
2022/08/27 00:57:45;;;;;;;5.75;5.35;;;;;;;18.66;100.00;96428.56;5044319;28;20207;-49
2022/08/27 01:00:15;;;;;;;5.80;5.40;;;;;;;18.65;100.00;96423.38;5044145;28;20378;-50
2022/08/27 01:02:42;;;;;;;5.53;5.13;;;;;;;18.60;100.00;96423.97;5042947;28;20235;-49
2022/08/27 01:05:11;;;;;;;5.60;5.10;;;;;;;18.58;100.00;96418.00;5044894;28;20226;-49
2022/08/27 01:07:40;;;;;;;5.90;5.50;;;;;;;18.51;100.00;96422.50;5043731;28;20939;-49
2022/08/27 01:10:11;;;;;;;5.72;5.22;;;;;;;18.50;100.00;96409.25;5043835;28;20644;-50
2022/08/27 01:12:38;;;;;;;6.05;5.57;;;;;;;18.47;100.00;96413.16;5044352;28;20202;-49
2022/08/27 01:15:09;;;;;;;6.05;5.65;;;;;;;18.44;100.00;96405.53;5044170;28;20292;-49
2022/08/27 01:17:37;;;;;;;6.07;5.45;;;;;;;18.42;100.00;96412.94;5043579;28;20223;-49
2022/08/27 01:20:07;;;;;;;5.68;5.28;;;;;;;18.39;100.00;96414.16;5044413;28;20257;-48
2022/08/27 01:22:39;;;;;;;5.60;5.20;;;;;;;18.41;100.00;96413.97;5044746;28;20210;-49
2022/08/27 01:25:09;;;;;;;6.03;5.60;;;;;;;18.39;100.00;96408.78;5043779;28;20238;-49
2022/08/27 01:27:37;;;;;;;5.78;5.38;;;;;;;18.42;100.00;96410.28;5044087;28;20215;-50
2022/08/27 01:30:05;;;;;;;6.70;5.97;;;;;;;18.42;100.00;96407.59;5043799;28;20284;-49
2022/08/27 01:32:33;;;;;;;6.57;6.07;;;;;;;18.41;100.00;96400.56;5044517;28;20200;-49
2022/08/27 01:35:01;;;;;;;6.28;5.78;;;;;;;18.39;100.00;96405.28;5044106;28;20235;-49
2022/08/27 01:37:28;;;;;;;6.63;6.13;;;;;;;18.36;100.00;96403.00;5043053;28;20208;-51
2022/08/27 01:39:56;;;;;;;6.68;6.18;;;;;;;18.40;100.00;96404.25;5043721;28;20601;-49
2022/08/27 01:42:29;;;;;;;6.38;5.88;;;;;;;18.36;100.00;96397.66;5044690;28;20347;-51
2022/08/27 01:44:58;;;;;;;7.15;6.55;;;;;;;18.30;100.00;96403.78;5043966;28;20648;-50
2022/08/27 01:47:27;;;;;;;6.70;6.20;;;;;;;18.35;100.00;96401.38;5043233;28;20305;-48
2022/08/27 01:49:54;;;;;;;6.63;6.20;;;;;;;18.35;100.00;96407.53;5043592;28;20203;-49
2022/08/27 01:52:22;;;;;;;6.72;6.32;;;;;;;18.33;100.00;96409.59;5044427;28;20658;-49
2022/08/27 01:54:50;;;;;;;6.50;6.10;;;;;;;18.33;100.00;96401.56;5045249;28;20300;-50
2022/08/27 01:57:17;;;;;;;7.13;6.53;;;;;;;18.32;100.00;96407.09;5046027;28;20294;-49
2022/08/27 01:59:46;;;;;;;6.40;6.00;;;;;;;18.32;100.00;96404.41;5046274;28;21470;-49
2022/08/27 02:02:15;;;;;;;6.63;6.13;;;;;;;18.33;100.00;96408.75;5048784;28;20212;-49
2022/08/27 02:04:42;;;;;;;6.57;6.07;;;;;;;18.31;100.00;96410.81;5044235;28;20206;-48
2022/08/27 02:07:10;;;;;;;7.38;6.78;;;;;;;18.28;100.00;96406.66;5044388;28;20345;-49
2022/08/27 02:09:36;;;;;;;6.68;6.18;;;;;;;18.28;100.00;96405.84;5044861;28;20207;-47
2022/08/27 02:12:04;;;;;;;7.20;6.60;;;;;;;18.27;100.00;96409.56;5045449;28;20214;-50
2022/08/27 02:14:31;;;;;;;7.65;6.97;;;;;;;18.25;100.00;96398.19;5045778;28;20230;-49
2022/08/27 02:16:59;;;;;;;7.60;6.90;;;;;;;18.23;100.00;96398.41;5045853;28;20588;-49
2022/08/27 02:19:26;;;;;;;7.20;6.70;;;;;;;18.29;100.00;96394.09;5049971;28;20200;-50
2022/08/27 02:21:53;;;;;;;7.05;6.55;;;;;;;18.28;100.00;96392.47;5042965;28;20544;-50
2022/08/27 02:24:20;;;;;;;7.35;6.75;;;;;;;18.25;100.00;96390.16;5042999;28;20613;-48
2022/08/27 02:26:47;;;;;;;7.78;7.20;;;;;;;18.22;100.00;96387.88;5042609;28;20225;-49
2022/08/27 02:29:14;;;;;;;7.07;6.47;;;;;;;18.20;100.00;96389.94;5048154;28;20219;-50
2022/08/27 02:31:41;;;;;;;7.13;6.63;;;;;;;18.22;100.00;96385.22;5059512;28;20207;-49
2022/08/27 02:34:09;;;;;;;7.75;6.97;;;;;;;18.19;100.00;96385.59;5052001;28;20222;-49
2022/08/27 02:36:37;;;;;;;6.97;6.45;;;;;;;18.17;100.00;96387.66;5043723;28;20233;-49
2022/08/27 02:39:04;;;;;;;7.13;6.45;;;;;;;18.12;100.00;96379.38;5042708;28;20262;-49
2022/08/27 02:41:31;;;;;;;7.15;6.65;;;;;;;18.14;100.00;96382.72;5042661;28;20207;-48
2022/08/27 02:43:57;;;;;;;7.50;6.80;;;;;;;18.11;100.00;96383.06;5042539;28;20217;-48
2022/08/27 02:46:24;;;;;;;6.97;6.47;;;;;;;18.11;100.00;96383.91;5042631;28;20254;-49
2022/08/27 02:48:51;;;;;;;7.53;6.80;;;;;;;18.09;100.00;96391.31;5041860;28;20286;-49
2022/08/27 02:51:19;;;;;;;6.90;6.40;;;;;;;18.08;100.00;96388.81;5042858;28;20256;-49
2022/08/27 02:53:46;;;;;;;6.80;6.30;;;;;;;18.04;100.00;96388.38;5042471;28;20264;-48
2022/08/27 02:56:13;;;;;;;7.53;6.20;;;;;;;18.04;100.00;96382.19;5042461;28;20284;-50
2022/08/27 02:58:40;;;;;;;5.90;5.40;;;;;;;18.04;100.00;96384.88;5042429;28;20287;-49
2022/08/27 03:01:07;;;;;;;6.50;6.05;;;;;;;18.08;100.00;96378.13;5042114;28;20207;-49
2022/08/27 03:03:33;;;;;;;6.35;5.78;;;;;;;18.04;100.00;96376.84;5042229;28;20303;-50
2022/08/27 03:06:00;;;;;;;5.70;5.20;;;;;;;18.04;100.00;96374.19;5041834;28;20200;-49
2022/08/27 03:08:29;;;;;;;6.22;5.70;;;;;;;18.03;100.00;96375.22;5042311;28;20289;-49
2022/08/27 03:10:56;;;;;;;7.35;5.38;;;;;;;18.01;100.00;96379.91;5042066;28;20640;-49
2022/08/27 03:13:24;;;;;;;5.10;4.70;;;;;;;18.00;100.00;96379.09;5042820;28;20290;-49
2022/08/27 03:15:51;;;;;;;5.80;5.07;;;;;;;17.97;100.00;96365.28;5041452;28;20259;-49
2022/08/27 03:18:17;;;;;;;5.30;4.90;;;;;;;17.97;100.00;96367.94;5041574;28;20227;-48
2022/08/27 03:20:45;;;;;;;6.13;5.40;;;;;;;17.95;100.00;96362.81;5041905;28;20297;-48
2022/08/27 03:23:14;;;;;;;6.20;5.75;;;;;;;17.93;100.00;96362.16;5041968;28;20240;-50
2022/08/27 03:25:44;;;;;;;6.20;5.78;;;;;;;17.84;100.00;96366.03;5042974;28;20291;-49
2022/08/27 03:28:15;;;;;;;6.47;5.97;;;;;;;17.81;100.00;96361.06;5046414;28;20274;-50
2022/08/27 03:30:44;;;;;;;5.97;5.57;;;;;;;17.83;100.00;96365.19;5046481;28;20199;-49
2022/08/27 03:33:11;;;;;;;5.95;5.45;;;;;;;17.84;100.00;96360.69;5045765;28;20203;-49
2022/08/27 03:35:38;;;;;;;5.90;5.43;;;;;;;17.80;100.00;96365.59;5046012;28;20534;-49
2022/08/27 03:38:05;;;;;;;5.70;5.30;;;;;;;17.79;100.00;96368.44;5045121;28;20265;-49
2022/08/27 03:40:32;;;;;;;5.80;5.40;;;;;;;17.83;100.00;96364.38;5046609;28;20199;-49
2022/08/27 03:43:00;;;;;;;5.55;5.07;;;;;;;17.86;100.00;96372.81;5045513;28;20235;-49
2022/08/27 03:45:27;;;;;;;5.63;5.10;;;;;;;17.83;100.00;96369.72;5046537;28;20242;-49
2022/08/27 03:47:53;;;;;;;5.70;5.25;;;;;;;17.78;100.00;96366.81;5044846;28;20242;-50
2022/08/27 03:50:20;;;;;;;5.60;5.20;;;;;;;17.76;100.00;96372.34;5046336;28;20264;-48
2022/08/27 03:52:47;;;;;;;5.63;5.20;;;;;;;17.80;100.00;96365.59;5046007;28;20623;-49
2022/08/27 03:55:14;;;;;;;5.85;5.35;;;;;;;17.80;100.00;96362.91;5046064;28;20269;-50
2022/08/27 03:57:41;;;;;;;5.55;5.15;;;;;;;17.81;100.00;96361.91;5045209;28;20206;-49
2022/08/27 04:00:11;;;;;;;5.68;5.25;;;;;;;17.85;100.00;96352.44;5045718;28;20247;-49
2022/08/27 04:02:38;;;;;;;5.43;5.05;;;;;;;17.85;100.00;96352.44;5045767;28;20703;-50
2022/08/27 04:05:06;;;;;;;6.45;5.90;;;;;;;17.88;100.00;96354.75;5045884;28;20552;-49
2022/08/27 04:07:33;;;;;;;5.95;5.45;;;;;;;17.88;100.00;96349.41;5045178;28;20265;-50
2022/08/27 04:10:02;;;;;;;5.32;4.95;;;;;;;17.92;100.00;96352.50;5045282;28;20271;-49
2022/08/27 04:12:29;;;;;;;5.93;5.43;;;;;;;17.92;100.00;96347.97;5045857;28;20269;-50
2022/08/27 04:14:55;;;;;;;6.55;5.88;;;;;;;17.95;100.00;96352.13;5045944;28;20232;-49
2022/08/27 04:17:23;;;;;;;5.90;5.50;;;;;;;17.97;100.00;96343.88;5045146;28;20207;-49
2022/08/27 04:19:51;;;;;;;6.00;5.60;;;;;;;17.99;100.00;96340.00;5045432;28;20231;-48
2022/08/27 04:22:19;;;;;;;6.07;5.57;;;;;;;18.03;100.00;96343.09;5044721;28;20235;-49
2022/08/27 04:24:46;;;;;;;5.80;5.40;;;;;;;18.05;100.00;96347.22;5046286;28;20213;-49
2022/08/27 04:27:15;;;;;;;6.78;6.10;;;;;;;18.08;100.00;96348.69;5045431;28;20290;-49
2022/08/27 04:29:42;;;;;;;6.90;6.40;;;;;;;18.09;100.00;96345.81;5045193;28;20584;-49
2022/08/27 04:32:08;;;;;;;8.05;7.35;;;;;;;18.08;100.00;96344.16;5044328;28;20242;-49
2022/08/27 04:34:36;;;;;;;7.03;6.40;;;;;;;18.10;100.00;96349.34;5045390;28;20214;-49
2022/08/27 04:37:04;;;;;;;7.47;6.88;;;;;;;18.11;100.00;96350.97;5043554;28;20227;-47
2022/08/27 04:39:31;;;;;;;7.45;6.85;;;;;;;18.13;100.00;96348.94;5045291;28;20204;-49
2022/08/27 04:41:59;;;;;;;7.95;7.30;;;;;;;18.14;100.00;96362.09;5044472;28;20236;-48
2022/08/27 04:44:27;;;;;;;7.70;7.10;;;;;;;18.14;100.00;96351.41;5045645;28;20330;-50
2022/08/27 04:46:55;;;;;;;8.48;7.80;;;;;;;18.14;100.00;96350.59;5044563;28;20260;-49
2022/08/27 04:49:22;;;;;;;8.43;7.75;;;;;;;18.16;100.00;96353.88;5044062;28;20240;-49
2022/08/27 04:51:50;;;;;;;7.80;7.22;;;;;;;18.22;100.00;96361.94;5044305;28;20253;-50
2022/08/27 04:54:18;;;;;;;8.02;7.07;;;;;;;18.24;100.00;96362.59;5044525;28;20686;-48
2022/08/27 04:56:44;;;;;;;8.50;7.72;;;;;;;18.25;100.00;96363.41;5044193;28;20235;-55
2022/08/27 04:59:11;;;;;;;8.63;7.93;;;;;;;18.24;100.00;96357.25;5043321;28;20195;-50
2022/08/27 05:01:39;;;;;;;8.98;8.27;;;;;;;18.21;100.00;96367.53;5043761;28;20294;-49
2022/08/27 05:04:07;;;;;;;8.95;8.25;;;;;;;18.23;100.00;96366.28;5042843;28;20242;-49
2022/08/27 05:06:35;;;;;;;9.80;8.93;;;;;;;18.23;100.00;96365.47;5043967;28;20291;-49
2022/08/27 05:09:04;;;;;;;9.60;8.90;;;;;;;18.23;100.00;96370.81;5043604;28;20339;-49
2022/08/27 05:11:33;;;;;;;10.18;9.30;;;;;;;18.25;100.00;96368.75;5044656;28;20588;-49
2022/08/27 05:14:02;;;;;;;9.65;8.95;;;;;;;18.25;100.00;96363.41;5045137;28;20199;-50
2022/08/27 05:16:28;;;;;;;9.82;9.02;;;;;;;18.27;100.00;96364.03;5044340;28;20265;-49
2022/08/27 05:18:56;;;;;;;9.70;9.00;;;;;;;18.26;100.00;96367.72;5043990;28;20223;-49
2022/08/27 05:21:25;;;;;;;10.30;9.40;;;;;;;18.28;100.00;96371.06;5044126;28;20214;-49
2022/08/27 05:23:53;;;;;;;9.82;9.02;;;;;;;18.28;100.00;96363.81;5044622;28;20196;-49
2022/08/27 05:26:21;;;;;;;10.15;9.35;;;;;;;18.30;100.00;96366.31;5044748;28;20530;-48
2022/08/27 05:28:48;;;;;;;10.40;9.50;;;;;;;18.32;100.00;96370.44;5043439;28;20258;-49
2022/08/27 05:31:15;;;;;;;10.68;9.68;;;;;;;18.34;100.00;96364.91;5043341;28;20268;-49
2022/08/27 05:33:43;;;;;;;9.95;9.10;;;;;;;18.39;100.00;96362.44;5043656;28;20196;-50
2022/08/27 05:36:16;;;;;;;10.35;9.52;;;;;;;18.40;100.00;96366.78;5044982;28;20203;-49
2022/08/27 05:38:43;;;;;;;11.38;9.82;;;;;;;18.38;100.00;96368.84;5044025;28;20241;-49
2022/08/27 05:41:12;;;;;;;10.82;9.90;;;;;;;18.38;100.00;96363.50;5043559;28;20210;-49
2022/08/27 05:43:42;;;;;;;11.07;10.18;;;;;;;18.39;100.00;96365.13;5045239;28;20541;-49
2022/08/27 05:46:10;;;;;;;10.27;9.38;;;;;;;18.44;100.00;96362.69;5044468;28;20254;-49
2022/08/27 05:48:38;;;;;;;10.32;9.52;;;;;;;18.45;100.00;96363.53;5042957;28;20274;-49
2022/08/27 05:51:10;;;;;;;11.80;10.80;;;;;;;18.47;100.00;96356.94;5044234;28;20214;-49
2022/08/27 05:53:37;;;;;;;10.40;9.60;;;;;;;18.51;100.00;96363.56;5043925;28;20196;-49
2022/08/27 05:56:04;;;;;;;10.90;10.10;;;;;;;18.54;100.00;96363.19;5043492;28;20274;-49
2022/08/27 06:01:18;;;;;;;12.15;11.00;;;;;;;18.55;100.00;96359.47;5043073;28;20218;-48
2022/08/27 06:03:45;;;;;;;12.05;11.02;;;;;;;18.58;100.00;96359.06;5043410;28;20202;-49
2022/08/27 06:06:12;;;;;;;11.95;10.95;;;;;;;18.57;100.00;96357.41;5042988;28;20200;-48
2022/08/27 06:08:39;;;;;;;11.38;10.48;;;;;;;18.62;100.00;96360.34;5044743;28;20358;-48
2022/08/27 06:11:07;;;;;;;12.68;11.68;;;;;;;18.63;100.00;96364.69;5043475;28;20295;-48
2022/08/27 06:13:35;;;;;;;12.70;11.63;;;;;;;18.71;100.00;96369.00;5043803;28;20287;-49
2022/08/27 06:16:02;;;;;;;13.02;11.82;;;;;;;18.73;100.00;96365.13;5043932;28;20299;-48
2022/08/27 06:18:30;;;;;;;13.02;11.93;;;;;;;18.78;100.00;96370.69;5043808;28;20192;-49
2022/08/27 06:20:57;;;;;;;12.82;11.82;;;;;;;18.82;100.00;96365.75;5043057;28;20235;-49
2022/08/27 06:23:24;;;;;;;13.38;12.18;;;;;;;18.85;100.00;96368.84;5043218;28;20287;-49
2022/08/27 06:25:50;;;;;;;13.63;12.50;;;;;;;18.85;100.00;96376.91;5044224;28;20203;-49
2022/08/27 06:28:17;;;;;;;14.02;12.80;;;;;;;18.88;100.00;96373.81;5044238;28;20245;-50
2022/08/27 06:30:44;;;;;;;13.35;12.25;;;;;;;18.86;100.00;96362.47;5044358;28;20231;-49
2022/08/27 06:33:10;;;;;;;13.57;12.32;;;;;;;18.92;100.00;96370.75;5045834;28;20227;-50
2022/08/27 06:35:38;;;;;;;13.50;12.40;;;;;;;18.92;100.00;96368.06;5055267;28;20188;-48
2022/08/27 06:38:06;;;;;;;13.43;12.32;;;;;;;19.00;100.00;96373.22;5064782;28;20211;-50
2022/08/27 06:40:32;;;;;;;11.95;10.95;;;;;;;19.07;100.00;96374.91;5065356;28;20203;-48
2022/08/27 06:42:59;;;;;;;12.98;11.98;;;;;;;19.11;100.00;96375.31;5065433;28;20221;-49
2022/08/27 06:45:26;;;;;;;12.70;11.60;;;;;;;19.16;100.00;96379.06;5066843;28;20200;-50
2022/08/27 06:47:54;;;;;;;13.27;12.18;;;;;;;19.13;100.00;96378.66;5065302;28;20220;-49
2022/08/27 06:50:21;;;;;;;13.02;11.93;;;;;;;19.10;100.00;96379.84;5062901;28;20227;-49
2022/08/27 06:52:49;;;;;;;12.50;11.20;;;;;;;19.12;100.00;96382.34;5064413;28;20188;-49
2022/08/27 06:55:16;;;;;;;12.38;11.18;;;;;;;19.17;100.00;96385.22;5063860;28;20191;-49
2022/08/27 06:57:43;;;;;;;12.23;11.23;;;;;;;19.17;100.00;96385.22;5063103;28;20203;-49
2022/08/27 07:00:11;;;;;;;13.23;12.10;;;;;;;19.12;100.00;96387.72;5060512;28;20256;-49
2022/08/27 07:02:38;;;;;;;12.15;11.05;;;;;;;19.16;100.00;96395.16;5042269;28;20211;-48
2022/08/27 07:05:06;;;;;;;11.50;10.60;;;;;;;19.16;100.00;96380.91;5042803;28;20254;-49
2022/08/27 07:07:34;;;;;;;11.00;10.20;;;;;;;19.20;100.00;96384.84;5041692;28;20195;-49
2022/08/27 07:10:02;;;;;;;12.13;11.10;;;;;;;19.20;100.00;96385.66;5041503;28;21511;-49
2022/08/27 07:12:29;;;;;;;11.40;10.50;;;;;;;19.24;100.00;96391.44;5042316;28;20663;-50
2022/08/27 07:14:55;;;;;;;11.18;10.27;;;;;;;19.31;100.00;96393.09;5042506;28;20693;-48
2022/08/27 07:17:22;;;;;;;11.65;10.75;;;;;;;19.29;100.00;96391.66;5041136;28;20245;-49
2022/08/27 07:19:49;;;;;;;11.85;10.82;;;;;;;19.28;100.00;96388.16;5041728;28;20269;-50
2022/08/27 07:22:16;;;;;;;10.20;9.50;;;;;;;19.32;100.00;96389.41;5041578;28;20233;-48
2022/08/27 07:24:43;;;;;;;13.93;12.82;;;;;;;19.34;100.00;96392.69;5041949;28;20233;-49
2022/08/27 07:27:11;;;;;;;11.00;10.10;;;;;;;19.42;100.00;96398.91;5041983;28;20265;-50
2022/08/27 07:29:38;;;;;;;11.32;10.43;;;;;;;19.29;100.00;96399.72;5041603;28;20733;-49
2022/08/27 07:32:05;;;;;;;9.35;8.52;;;;;;;19.32;100.00;96399.28;5041518;28;20296;-49
2022/08/27 07:34:32;;;;;;;10.23;9.52;;;;;;;19.34;100.00;96402.63;5042007;28;20291;-49
2022/08/27 07:36:58;;;;;;;10.20;9.35;;;;;;;19.35;100.00;96405.06;5041928;28;20202;-49
2022/08/27 07:39:25;;;;;;;11.63;10.63;;;;;;;19.37;100.00;96402.22;5041440;28;20204;-49
2022/08/27 07:44:41;;;;;;;9.95;9.25;;;;;;;19.43;100.00;96403.25;5041606;28;20199;-50
2022/08/27 07:47:08;;;;;;;10.60;9.80;;;;;;;19.43;100.00;96411.31;5041120;28;20301;-50
2022/08/27 07:49:36;;;;;;;10.98;10.18;;;;;;;19.37;100.00;96411.09;5040498;28;20332;-49
2022/08/27 07:52:05;;;;;;;10.63;9.73;;;;;;;19.42;100.00;96410.47;5041512;28;20219;-50
2022/08/27 07:54:31;;;;;;;11.48;10.57;;;;;;;19.44;100.00;96413.81;5041155;28;20216;-48
2022/08/27 07:56:58;;;;;;;11.23;10.43;;;;;;;19.42;100.00;96415.00;5041186;28;20602;-49
2022/08/27 07:59:41;;;;;;;11.80;10.80;;;;;;;19.41;100.00;96414.22;5040880;28;20211;-50
2022/08/27 08:02:08;;;;;;;11.02;10.20;;;;;;;19.45;100.00;96415.44;5042171;28;20231;-49
2022/08/27 08:04:34;;;;;;;12.15;11.15;;;;;;;19.43;100.00;96420.19;5040891;28;20207;-50
2022/08/27 08:07:01;;;;;;;12.45;11.45;;;;;;;19.44;100.00;96423.69;5041792;28;20207;-49
2022/08/27 08:09:29;;;;;;;11.23;10.30;;;;;;;19.45;100.00;96418.13;5041264;28;20219;-50
2022/08/27 08:11:56;;;;;;;10.73;9.93;;;;;;;19.52;100.00;96423.53;5043110;28;20214;-49
2022/08/27 08:14:22;;;;;;;10.88;9.98;;;;;;;19.58;100.00;96420.84;5047214;28;20199;-49
2022/08/27 08:16:50;;;;;;;12.93;11.82;;;;;;;19.64;100.00;96417.34;5045629;28;20297;-48
2022/08/27 08:19:17;;;;;;;12.93;11.93;;;;;;;19.64;100.00;96430.75;5045426;28;20211;-48
2022/08/27 08:21:44;;;;;;;11.82;10.80;;;;;;;19.65;100.00;96432.41;5045199;28;20292;-49
2022/08/27 08:24:11;;;;;;;11.68;10.77;;;;;;;19.65;100.00;96431.56;5044487;28;20241;-49
2022/08/27 08:26:39;;;;;;;11.05;10.15;;;;;;;19.66;100.00;96431.34;5045122;28;20243;-48
2022/08/27 08:29:06;;;;;;;9.70;9.00;;;;;;;19.69;100.00;96430.97;5043870;28;20227;-49
2022/08/27 08:31:33;;;;;;;9.50;8.80;;;;;;;19.72;100.00;96443.97;5045189;28;20616;-49
2022/08/27 08:34:01;;;;;;;8.57;7.97;;;;;;;19.80;100.00;96440.28;5043682;28;20239;-50
2022/08/27 08:36:27;;;;;;;10.02;9.23;;;;;;;19.82;100.00;96439.03;5045437;28;20285;-49
2022/08/27 08:38:54;;;;;;;9.25;8.55;;;;;;;19.81;100.00;96442.72;5044819;28;20199;-50
2022/08/27 08:41:32;;;;;;;9.05;8.27;;;;;;;19.92;100.00;96435.09;5044116;28;20236;-53
2022/08/27 08:43:59;;;;;;;8.70;8.00;;;;;;;19.98;100.00;96434.28;5044191;28;20227;-53
2022/08/27 08:46:31;;;;;;;7.45;6.85;;;;;;;20.08;100.00;96440.91;5044449;28;20200;-51
2022/08/27 08:49:04;;;;;;;8.30;7.60;;;;;;;20.14;100.00;96448.13;5043746;28;20258;-54
2022/08/27 08:51:35;;;;;;;9.13;8.43;;;;;;;20.19;100.00;96450.19;5044743;28;20285;-52
2022/08/27 08:54:04;;;;;;;9.48;7.80;;;;;;;20.23;100.00;96446.03;5044411;28;20257;-52
2022/08/27 08:56:34;;;;;;;8.15;7.55;;;;;;;20.30;100.00;96441.50;5043519;28;20235;-52
2022/08/27 08:59:03;;;;;;;7.18;6.68;;;;;;;20.38;100.00;96449.34;5043633;28;20237;-53
2022/08/27 09:01:30;;;;;;;8.95;8.10;;;;;;;20.33;100.00;96439.22;5043171;28;20196;-52
2022/08/27 09:03:58;;;;;;;8.00;7.18;;;;;;;20.41;100.00;96448.94;5043749;28;20212;-50
2022/08/27 09:06:38;;;;;;;7.63;7.03;;;;;;;20.42;100.00;96445.22;5043399;28;20304;-51
2022/08/27 09:09:13;;;;;;;6.53;6.10;;;;;;;20.50;100.00;96447.69;5043486;28;20242;-51
2022/08/27 09:11:44;;;;;;;6.32;5.93;;;;;;;20.54;100.00;96454.31;5043157;28;20231;-52
2022/08/27 09:14:23;;;;;;;7.40;6.72;;;;;;;20.51;100.00;96448.53;5043719;28;20203;-52
2022/08/27 09:16:50;;;;;;;5.80;5.40;;;;;;;20.48;100.00;96448.91;5043531;28;20671;-54
2022/08/27 09:19:17;;;;;;;5.88;5.38;;;;;;;20.49;100.00;96453.25;5041965;28;20722;-53
2022/08/27 09:21:51;;;;;;;5.15;4.85;;;;;;;20.46;100.00;96446.47;5043035;28;20709;-48
2022/08/27 09:24:23;;;;;;;5.20;4.80;;;;;;;20.50;100.00;96453.06;5042583;28;20294;-50
2022/08/27 09:26:50;;;;;;;5.78;5.38;;;;;;;20.56;100.00;96457.59;5042972;28;20302;-50
2022/08/27 09:29:19;;;;;;;4.70;4.30;;;;;;;20.56;100.00;96454.91;5043146;28;20246;-50
2022/08/27 09:31:50;;;;;;;4.50;4.20;;;;;;;20.48;100.00;96455.13;5043329;28;20342;-50
2022/08/27 09:34:17;;;;;;;4.63;4.32;;;;;;;20.51;100.00;96462.75;5043229;28;20284;-53
2022/08/27 09:36:56;;;;;;;4.32;4.03;;;;;;;20.48;100.00;96460.50;5043109;28;20228;-52
2022/08/27 09:39:28;;;;;;;4.40;4.10;;;;;;;20.47;100.00;96456.19;5043008;28;20199;-52
2022/08/27 09:41:55;;;;;;;4.25;3.95;;;;;;;20.45;100.00;96458.22;5042445;28;20207;-54
2022/08/27 09:44:22;;;;;;;4.47;4.07;;;;;;;20.46;100.00;96456.38;5043415;28;20302;-53
2022/08/27 09:46:54;;;;;;;3.90;3.70;;;;;;;20.45;100.00;96452.84;5042510;28;20294;-54
2022/08/27 09:49:22;;;;;;;3.50;3.30;;;;;;;20.48;100.00;96448.91;5042370;28;20329;-54
2022/08/27 09:51:49;;;;;;;3.13;2.90;;;;;;;20.46;100.00;96456.38;5042604;28;20289;-54
2022/08/27 09:54:43;;;;;;;4.03;3.72;;;;;;;20.44;100.00;96448.50;5042721;28;20300;-55
2022/08/27 09:57:12;;;;;;;3.33;3.15;;;;;;;20.46;100.00;96457.19;5032152;28;20533;-54
2022/08/27 09:59:41;;;;;;;3.20;2.90;;;;;;;20.43;100.00;96443.38;5042459;28;20257;-50
2022/08/27 10:02:15;;;;;;;3.42;3.22;;;;;;;20.51;100.00;96443.94;5043962;28;20644;-49
2022/08/27 10:04:43;;;;;;;3.42;3.13;;;;;;;20.57;100.00;96439.63;5043530;28;20214;-49
2022/08/27 10:07:26;;;;;;;3.20;3.00;;;;;;;20.64;100.00;96438.56;5042652;28;20289;-50
2022/08/27 10:09:58;;;;;;;3.75;3.55;;;;;;;20.64;100.00;96449.31;5043217;28;20299;-50
2022/08/27 10:12:29;;;;;;;3.58;3.38;;;;;;;20.66;100.00;96444.53;5042849;28;20331;-49
2022/08/27 10:14:59;;;;;;;3.33;3.13;;;;;;;20.73;100.00;96436.47;5043626;28;20203;-49
2022/08/27 10:17:32;;;;;;;4.60;4.28;;;;;;;20.79;100.00;96443.69;5042493;28;20298;-49
2022/08/27 10:20:04;;;;;;;4.63;4.30;;;;;;;20.82;100.00;96440.59;5042970;28;20238;-48
2022/08/27 10:22:40;;;;;;;4.05;3.78;;;;;;;20.79;100.00;96441.84;5042113;28;20206;-49
2022/08/27 10:25:17;;;;;;;4.40;4.00;;;;;;;20.80;100.00;96437.28;5042275;28;20233;-50
2022/08/27 10:27:51;;;;;;;4.32;3.95;;;;;;;20.69;100.00;96430.69;5042196;28;20206;-51
2022/08/27 10:30:20;;;;;;;4.18;3.90;;;;;;;20.78;100.00;96432.13;5042006;28;20603;-50
2022/08/27 10:32:56;;;;;;;4.72;4.43;;;;;;;20.86;100.00;96436.44;5042738;28;20230;-50
2022/08/27 10:35:26;;;;;;;4.63;4.20;;;;;;;20.98;100.00;96429.34;5041078;28;20245;-49
2022/08/27 10:38:02;;;;;;;4.75;4.35;;;;;;;21.09;100.00;96427.84;5042034;28;20231;-49
2022/08/27 10:40:33;;;;;;;4.88;4.57;;;;;;;21.22;100.00;96431.34;5041921;28;20241;-50
2022/08/27 10:43:08;;;;;;;4.82;4.53;;;;;;;21.32;100.00;96422.81;5041619;28;20286;-51
2022/08/27 10:45:42;;;;;;;5.10;4.80;;;;;;;21.41;100.00;96424.22;5041194;28;20680;-50
2022/08/27 10:48:15;;;;;;;4.32;4.03;;;;;;;21.52;100.00;96415.44;5041551;28;20322;-50
2022/08/27 10:50:46;;;;;;;4.45;4.18;;;;;;;21.68;97.75;96420.31;5041831;28;20309;-50
2022/08/27 10:53:25;;;;;;;4.13;3.85;;;;;;;21.75;98.77;96421.06;5041815;28;20697;-51
2022/08/27 10:55:58;;;;;;;4.28;3.97;;;;;;;21.79;95.48;96414.22;5041503;28;20199;-51
2022/08/27 10:58:35;;;;;;;4.35;4.03;;;;;;;21.99;97.28;96415.97;5041115;28;20222;-50
2022/08/27 11:01:07;;;;;;;4.30;4.00;;;;;;;22.22;96.20;96416.19;5041133;28;20667;-49
2022/08/27 11:03:36;;;;;;;4.63;4.22;;;;;;;22.46;97.60;96409.94;5041425;28;20235;-49
2022/08/27 11:06:08;;;;;;;5.05;4.68;;;;;;;22.59;90.66;96412.50;5041431;28;20234;-50
2022/08/27 11:08:39;;;;;;;3.60;3.40;;;;;;;23.06;95.73;96412.81;5041043;28;20265;-49
2022/08/27 11:11:11;;;;;;;3.47;3.28;;;;;;;23.57;91.47;96410.47;5040904;28;20695;-49
2022/08/27 11:13:40;;;;;;;3.30;3.10;;;;;;;23.68;81.20;96412.41;5042089;28;20191;-49
2022/08/27 11:16:15;;;;;;;3.35;3.15;;;;;;;24.00;85.19;96401.31;5041555;28;20272;-52
2022/08/27 11:18:45;;;;;;;3.53;3.30;;;;;;;24.24;81.26;96394.91;5040887;28;20191;-49
2022/08/27 11:21:15;;;;;;;3.38;3.17;;;;;;;24.34;80.12;96400.53;5042205;28;20239;-49
2022/08/27 11:23:44;;;;;;;2.97;2.70;;;;;;;24.17;74.95;96405.81;5041178;28;20294;-49
2022/08/27 11:26:12;;;;;;;3.33;3.13;;;;;;;24.04;75.18;96405.19;5042351;28;20693;-51
2022/08/27 11:28:42;;;;;;;3.60;3.40;;;;;;;24.17;78.00;96394.19;5041774;28;20307;-49
2022/08/27 11:31:12;;;;;;;3.80;3.60;;;;;;;24.15;77.64;96391.75;5041080;28;20215;-50
2022/08/27 11:33:45;;;;;;;3.85;3.63;;;;;;;24.08;77.47;96382.88;5041453;28;20301;-51